Flight Track Log - Related Links

Times and Time Zones

All times are in EDT time to prevent confusion due to time zone crossing. See the CAL601 flight status page for this flight to view local times or setup timezone preferences in your user account.

Time Position Orientation Groundspeed Altitude Reporting Facility
EDT Latitude Longitude Course Direction KTS MPH feet Rate Location/Type
Sun 07:47:32 PM 25.0800 121.2480 49° Northeast 167 192 700  Level FlightAware ADS-B
Sun 07:48:02 PM 25.0970 121.2690 48° Northeast 179 206 1,700 1,600 Climbing FlightAware ADS-B
Sun 07:48:17 PM 25.1040 121.2790 52° Northeast 195 224 1,900 1,050 Climbing FlightAware ADS-B
Sun 07:48:42 PM 25.1210 121.3000 48° Northeast 225 259 2,400 1,500 Climbing FlightAware ADS-B
Sun 07:48:57 PM 25.1350 121.3050 18° North 226 260 2,900 2,267 Climbing FlightAware ADS-B
Sun 07:49:27 PM 25.1620 121.2900 333° Northwest 222 255 4,100 2,267 Climbing FlightAware ADS-B
Sun 07:49:42 PM 25.1660 121.2730 285° West 223 257 4,600 1,350 Climbing FlightAware ADS-B
Sun 07:50:07 PM 25.1560 121.2480 246° West 248 285 5,000 1,745 Climbing FlightAware ADS-B
Sun 07:50:37 PM 25.1360 121.2140 237° Southwest 254 292 6,200 2,600 Climbing FlightAware ADS-B
Sun 07:51:07 PM 25.1170 121.1800 238° Southwest 260 299 7,600 2,509 Climbing FlightAware ADS-B
Sun 07:51:32 PM 25.1010 121.1520 238° Southwest 271 312 8,500 2,769 Climbing FlightAware ADS-B
Sun 07:52:12 PM 25.0730 121.1040 237° Southwest 278 320 10,600 3,035 Climbing FlightAware ADS-B
Sun 07:52:57 PM 25.0410 121.0480 238° Southwest 292 336 12,800 2,541 Climbing FlightAware ADS-B
Sun 07:53:37 PM 25.0110 120.9950 238° Southwest 317 365 14,200 2,509 Climbing FlightAware ADS-B
Sun 07:53:52 PM 25.0040 120.9740 250° West 310 357 15,100 3,164 Climbing FlightAware ADS-B
Sun 07:54:32 PM 24.9880 120.9130 254° West 309 356 17,100 2,824 Climbing FlightAware ADS-B
Sun 07:55:17 PM 24.9690 120.8430 253° West 315 362 19,100 2,471 Climbing FlightAware ADS-B
Sun 07:55:57 PM 24.9450 120.7840 246° West 327 376 20,600 2,175 Climbing FlightAware ADS-B
Sun 07:56:37 PM 24.9180 120.7230 244° Southwest 337 388 22,000 2,118 Climbing FlightAware ADS-B
Sun 07:57:22 PM 24.8870 120.6540 244° Southwest 342 394 23,600 1,694 Climbing FlightAware ADS-B
Sun 07:58:02 PM 24.8580 120.5900 243° Southwest 360 414 24,400 1,976 Climbing FlightAware ADS-B
Sun 07:58:47 PM 24.8240 120.5170 243° Southwest 349 402 26,400 2,259 Climbing FlightAware ADS-B
Sun 07:59:27 PM 24.7960 120.4520 245° Southwest 352 405 27,600 1,575 Climbing FlightAware ADS-B
Sun 08:00:07 PM 24.7670 120.3870 244° Southwest 362 417 28,500 1,271 Climbing FlightAware ADS-B
Sun 08:00:52 PM 24.7160 120.3270 227° Southwest 380 437 29,400 1,200 Climbing FlightAware ADS-B
Sun 08:01:32 PM 24.6600 120.2760 220° Southwest 393 452 30,200 1,412 Climbing FlightAware ADS-B
Sun 08:02:17 PM 24.5870 120.2300 210° Southwest 399 459 31,400 1,200 Climbing FlightAware ADS-B
Sun 08:02:57 PM 24.5210 120.1900 209° Southwest 412 474 31,900 1,200 Climbing FlightAware ADS-B
Sun 08:03:52 PM 24.4290 120.1340 209° Southwest 410 472 33,300 1,740 Climbing FlightAware ADS-B
Sun 08:04:37 PM 24.3580 120.0910 209° Southwest 395 455 34,800 1,694 Climbing FlightAware ADS-B
Sun 08:05:17 PM 24.2940 120.0530 208° Southwest 391 450 35,700 960 Climbing FlightAware ADS-B
Sun 08:05:52 PM 24.2360 120.0180 209° Southwest 396 456 36,000 225 Climbing FlightAware ADS-B
Sun 08:06:37 PM 24.1630 119.9750 208° Southwest 409 471 36,000  Level FlightAware ADS-B
Sun 08:07:17 PM 24.0970 119.9350 209° Southwest 410 472 36,000  Level FlightAware ADS-B
Sun 08:07:57 PM 24.0300 119.8950 209° Southwest 410 472 36,000  Level FlightAware ADS-B
Sun 08:08:42 PM 23.9570 119.8510 209° Southwest 411 473 36,000  Level FlightAware ADS-B
Sun 08:09:22 PM 23.8880 119.8110 208° Southwest 411 473 36,000  Level FlightAware ADS-B
Sun 08:10:02 PM 23.8260 119.7740 209° Southwest 412 474 36,000  Level FlightAware ADS-B
Sun 08:11:02 PM 23.7260 119.7140 209° Southwest 413 475 36,000  Level FlightAware ADS-B
Sun 08:11:57 PM 23.6320 119.6580 209° Southwest 413 475 36,000  Level FlightAware ADS-B
Sun 08:12:32 PM 23.5810 119.6110 220° Southwest 400 460 36,000  Level FlightAware ADS-B
Sun 08:13:17 PM 23.5400 119.5410 237° Southwest 400 460 36,000  Level FlightAware ADS-B
Sun 08:14:02 PM 23.4930 119.4600 238° Southwest 400 460 36,000  Level FlightAware ADS-B
Sun 08:14:37 PM 23.4570 119.3990 237° Southwest 400 460 36,000  Level FlightAware ADS-B
Sun 08:15:37 PM 23.4010 119.3020 238° Southwest 402 463 36,000  Level FlightAware ADS-B
Sun 08:16:32 PM 23.3450 119.2060 238° Southwest 404 465 36,000  Level FlightAware ADS-B
Sun 08:17:12 PM 23.3020 119.1330 237° Southwest 405 466 36,000  Level FlightAware ADS-B
Sun 08:17:52 PM 23.2620 119.0650 237° Southwest 406 467 36,000  Level FlightAware ADS-B
Sun 08:18:47 PM 23.2070 118.9700 238° Southwest 407 468 36,000  Level FlightAware ADS-B
Sun 08:19:42 PM 23.1530 118.8770 238° Southwest 409 471 36,000  Level FlightAware ADS-B
Sun 08:20:22 PM 23.1110 118.8060 237° Southwest 409 471 36,000  Level FlightAware ADS-B
Sun 08:21:07 PM 23.0670 118.7320 237° Southwest 408 470 36,000  Level FlightAware ADS-B
Sun 08:22:02 PM 23.0070 118.6300 237° Southwest 409 471 36,000  Level FlightAware ADS-B
Sun 08:22:42 PM 22.9690 118.5650 238° Southwest 410 472 36,000  Level FlightAware ADS-B
Sun 08:23:27 PM 22.9180 118.4800 237° Southwest 410 472 36,000  Level FlightAware ADS-B
Sun 08:24:07 PM 22.8780 118.4120 237° Southwest 409 471 36,000  Level FlightAware ADS-B
Sun 08:24:47 PM 22.8370 118.3420 238° Southwest 410 472 36,000  Level FlightAware ADS-B
Sun 08:25:32 PM 22.7930 118.2680 237° Southwest 411 473 36,000  Level FlightAware ADS-B
Sun 08:26:12 PM 22.7500 118.1960 237° Southwest 412 474 36,000  Level FlightAware ADS-B
Sun 08:26:57 PM 22.7030 118.1170 237° Southwest 412 474 36,000  Level FlightAware ADS-B
Sun 08:27:37 PM 22.6630 118.0490 237° Southwest 413 475 36,000  Level FlightAware ADS-B
Sun 08:28:17 PM 22.6200 117.9780 237° Southwest 413 475 36,000  Level FlightAware ADS-B
Sun 08:28:57 PM 22.5850 117.9200 237° Southwest 413 475 36,000  Level FlightAware ADS-B
Sun 08:29:42 PM 22.5380 117.8400 238° Southwest 414 476 36,000  Level FlightAware ADS-B
Sun 08:30:22 PM 22.4990 117.7750 237° Southwest 415 478 36,000  Level FlightAware ADS-B
Sun 08:31:07 PM 22.4460 117.6880 237° Southwest 416 479 36,000  Level FlightAware ADS-B
Sun 08:31:47 PM 22.4100 117.6280 237° Southwest 416 479 36,000  Level FlightAware ADS-B
Sun 08:32:32 PM 22.3560 117.5370 237° Southwest 417 480 36,000  Level FlightAware ADS-B
Sun 08:33:07 PM 22.3230 117.4840 236° Southwest 417 480 36,000  Level FlightAware ADS-B
Sun 08:33:47 PM 22.2860 117.4250 236° Southwest 417 480 36,000  Level FlightAware ADS-B
Sun 08:34:37 PM 22.2400 117.3520 236° Southwest 417 480 36,000  Level FlightAware ADS-B
Sun 08:35:17 PM 22.2030 117.2930 236° Southwest 417 480 36,000  Level FlightAware ADS-B
Sun 08:35:27 PM 22.3280 117.1920 323° Northwest 36,000  Level FlightAware ADS-B
Sun 08:36:17 PM 22.3260 117.0970 269° West 402 463 36,000  Level FlightAware ADS-B
Sun 08:36:52 PM 22.3240 117.0230 268° West 403 464 36,000  Level FlightAware ADS-B
Sun 08:37:37 PM 22.3230 116.9280 269° West 405 466 36,000  Level FlightAware ADS-B
Sun 08:38:17 PM 22.3210 116.8470 268° West 403 464 36,000  Level FlightAware ADS-B
Sun 08:39:02 PM 22.3190 116.7690 268° West 402 463 36,000  Level FlightAware ADS-B
Sun 08:39:42 PM 22.3170 116.6870 269° West 402 463 36,000  Level FlightAware ADS-B
Sun 08:40:42 PM 22.3140 116.5650 269° West 400 460 36,000 -462 Level FlightAware ADS-B
Sun 08:41:52 PM 22.3110 116.4300 269° West 394 453 35,000 -1,200 Descending FlightAware ADS-B
Sun 08:42:42 PM 22.3090 116.3270 269° West 379 436 33,600 -884 Descending FlightAware ADS-B
Sun 08:43:27 PM 22.3070 116.2530 268° West 379 436 33,600  Level FlightAware ADS-B
Sun 08:44:07 PM 22.3050 116.1890 268° West 379 436 33,600  Level FlightAware ADS-B
Sun 08:44:47 PM 22.3030 116.1240 268° West 379 436 33,600  Level FlightAware ADS-B
Sun 08:45:27 PM 22.3010 116.0600 268° West 379 436 33,600  Level FlightAware ADS-B
Sun 08:46:17 PM 22.2980 115.9790 268° West 379 436 33,600  Level FlightAware ADS-B
Sun 08:46:57 PM 22.2960 115.9150 268° West 379 436 33,600  Level FlightAware ADS-B
Sun 08:47:37 PM 22.2940 115.8510 268° West 379 436 33,600  Level FlightAware ADS-B
Sun 08:48:17 PM 22.2920 115.7860 268° West 379 436 33,600  Level FlightAware ADS-B
Sun 08:48:57 PM 22.2900 115.7220 268° West 379 436 33,600  Level FlightAware ADS-B
Sun 08:49:47 PM 22.2870 115.6410 268° West 379 436 33,600  Level FlightAware ADS-B
Sun 08:50:27 PM 22.2850 115.5770 268° West 379 436 33,600  Level FlightAware ADS-B
Sun 08:51:07 PM 22.2830 115.5130 268° West 379 436 33,600  Level FlightAware ADS-B
Sun 08:51:47 PM 22.2810 115.4480 268° West 379 436 33,600  Level FlightAware ADS-B
Sun 08:52:27 PM 22.2790 115.3840 268° West 379 436 33,600 -4,200 Level FlightAware ADS-B
Sun 08:55:00 PM 22.2839 115.1824 272° West  Level Estimated
Sun 08:56:00 PM 22.2857 115.1034 271° West  Level Estimated
Sun 08:56:17 PM 22.2680 114.8810 271° West 319 367 14,700  Level FlightAware ADS-B
Sun 08:56:57 PM 22.2660 114.8230 268° West 319 367 14,500 -1,575 Descending FlightAware ADS-B
Sun 08:57:37 PM 22.2640 114.7550 268° West 307 353 12,600 -1,341 Descending FlightAware ADS-B
Sun 08:58:22 PM 22.2610 114.6940 267° West 307 353 12,600  Level FlightAware ADS-B
Sun 08:59:02 PM 22.2590 114.6410 268° West 307 353 12,600 -960 Level FlightAware ADS-B
Sun 09:00:02 PM 22.2570 114.5410 269° West 300 345 11,000 -1,011 Descending FlightAware ADS-B
Sun 09:00:37 PM 22.2550 114.4930 267° West 300 345 11,000  Level FlightAware ADS-B
Sun 09:01:27 PM 22.2530 114.4290 268° West 300 345 11,000  Level FlightAware ADS-B
Sun 09:01:57 PM 22.2520 114.3910 268° West 300 345 11,000  Level FlightAware ADS-B
Sun 09:03:47 PM 22.2210 114.2230 259° West 293 337 11,000 -280 Level FlightAware ADS-B
Sun 09:04:27 PM 22.1990 114.1650 248° West 270 311 10,300 -1,292 Descending FlightAware ADS-B
Sun 09:04:52 PM 22.1910 114.1420 249° West 284 327 9,600 -1,500 Descending FlightAware ADS-B
Sun 09:05:27 PM 22.1710 114.0880 248° West 273 314 8,800 -1,320 Descending FlightAware ADS-B
Sun 09:05:42 PM 22.1640 114.0710 246° West 270 311 8,500 -800 Descending FlightAware ADS-B
Sun 09:06:12 PM 22.1540 114.0450 247° West 266 306 8,200 -462 Descending FlightAware ADS-B
Sun 09:06:47 PM 22.1380 114.0020 248° West 256 295 8,000 -500 Descending FlightAware ADS-B
Sun 09:07:12 PM 22.1260 113.9700 248° West 244 281 7,700 -960 Descending FlightAware ADS-B
Sun 09:08:02 PM 22.1060 113.9180 247° West 237 273 6,800 -1,200 Descending FlightAware ADS-B
Sun 09:08:32 PM 22.0950 113.8820 252° West 237 273 6,100 -1,165 Descending FlightAware ADS-B
Sun 09:10:47 PM 22.1780 113.7600 306° West 3,600 -1,114 Descending FlightAware ADS-B
Sun 09:10:52 PM 22.1860 113.7570 341° North 216 249 3,500 -240 Descending FlightAware ADS-B
Sun 09:11:37 PM 22.2180 113.7440 339° North 211 243 3,400 -736 Descending FlightAware ADS-B
Sun 09:14:00 PM 22.3050 113.9073 60° Northeast  Level Estimated
Sun 09:14:32 PM 22.3010 113.8660 60° Northeast 154 177 800  Level FlightAware ADS-B
Sun 09:14:47 PM 22.3040 113.8770 74° East 152 175 600 -655 Descending FlightAware ADS-B
Sun 09:15:27 PM 22.3130 113.9050 71° East 137 158 200 -600 Descending FlightAware ADS-B

Login

Don't have an account? Register now (free) for customized features, flight alerts, and more!